Time;durP1;ratioP1;P1;durP2;ratioP2;P2;SDS_P1;SDS_P2;PMS_P1;PMS_P2;Temp;Humidity;BMP_temperature;BMP_pressure;BME280_temperature;BME280_humidity;BME280_pressure;Samples;Min_cycle;Max_cycle;Signal;HPM_P1;HPM_P2
2022/05/30 00:01:44;;;;;;;2.88;0.40;;;10.50;99.90;;;;;;5019934;28;20045;-83
2022/05/30 00:04:11;;;;;;;4.18;0.70;;;10.50;99.90;;;;;;5031853;28;20033;-82
2022/05/30 00:06:37;;;;;;;4.00;0.70;;;10.40;99.90;;;;;;5031946;28;20033;-86
2022/05/30 00:09:04;;;;;;;4.88;0.65;;;10.40;99.90;;;;;;5030551;28;20044;-87
2022/05/30 00:11:31;;;;;;;4.05;0.50;;;10.30;99.90;;;;;;5029097;28;20030;-86
2022/05/30 00:14:00;;;;;;;8.20;0.82;;;10.30;99.90;;;;;;5025867;28;20033;-87
2022/05/30 00:16:27;;;;;;;5.53;0.70;;;10.20;99.90;;;;;;5005772;28;20029;-86
2022/05/30 00:18:54;;;;;;;4.05;0.60;;;10.10;99.90;;;;;;5024866;28;22740;-86
2022/05/30 00:21:22;;;;;;;4.03;0.60;;;10.20;99.90;;;;;;5010305;28;20492;-87
2022/05/30 00:23:49;;;;;;;5.90;0.82;;;10.10;99.90;;;;;;4993955;28;20048;-86
2022/05/30 00:26:22;;;;;;;4.13;0.70;;;10.10;99.90;;;;;;5025109;28;20037;-86
2022/05/30 00:28:49;;;;;;;4.47;0.45;;;10.10;99.90;;;;;;5023753;28;20377;-86
2022/05/30 00:31:17;;;;;;;3.63;0.60;;;10.10;99.90;;;;;;4995245;28;20389;-86
2022/05/30 00:33:51;;;;;;;4.90;0.50;;;10.00;99.90;;;;;;5022697;28;20029;-86
2022/05/30 00:36:17;;;;;;;4.28;0.70;;;10.00;99.90;;;;;;5025754;28;20032;-85
2022/05/30 00:38:44;;;;;;;5.47;0.80;;;10.00;99.90;;;;;;5023326;28;20034;-86
2022/05/30 00:41:15;;;;;;;3.50;0.50;;;10.00;99.90;;;;;;5022284;28;20029;-85
2022/05/30 00:43:46;;;;;;;3.75;0.50;;;10.00;99.90;;;;;;5023589;28;21438;-84
2022/05/30 00:46:15;;;;;;;4.85;0.50;;;10.00;99.90;;;;;;4993159;28;20408;-84
2022/05/30 00:48:47;;;;;;;3.33;0.70;;;10.00;99.90;;;;;;5022874;28;20032;-85
2022/05/30 00:51:30;;;;;;;3.20;0.40;;;9.90;99.90;;;;;;5006931;28;20025;-83
2022/05/30 00:53:58;;;;;;;5.35;0.55;;;9.90;99.90;;;;;;5013305;28;20033;-85
2022/05/30 00:56:35;;;;;;;5.75;1.05;;;9.80;99.90;;;;;;5025357;28;20037;-85
2022/05/30 00:59:04;;;;;;;3.30;0.60;;;9.80;99.90;;;;;;5026277;28;20033;-85
2022/05/30 01:01:32;;;;;;;5.82;0.52;;;9.80;99.90;;;;;;5007469;28;20033;-85
2022/05/30 01:06:49;;;;;;;5.50;0.85;;;9.70;99.90;;;;;;5009127;28;20037;-84
2022/05/30 01:09:27;;;;;;;4.88;0.88;;;9.70;99.90;;;;;;5026490;28;20033;-86
2022/05/30 01:12:04;;;;;;;5.15;0.60;;;9.60;99.90;;;;;;5039929;28;20030;-85
2022/05/30 01:14:35;;;;;;;5.03;0.88;;;9.50;99.90;;;;;;5011572;28;20037;-85
2022/05/30 01:17:12;;;;;;;5.03;0.60;;;9.50;99.90;;;;;;5030178;28;20032;-84
2022/05/30 01:20:02;;;;;;;4.28;0.60;;;9.40;99.90;;;;;;5011442;28;20033;-85
2022/05/30 01:22:49;;;;;;;6.10;0.70;;;9.30;99.90;;;;;;4997862;28;20616;-85
2022/05/30 01:25:17;;;;;;;6.03;0.70;;;9.20;99.90;;;;;;5018872;28;20064;-86
2022/05/30 01:28:22;;;;;;;8.82;0.90;;;9.20;99.90;;;;;;5030203;28;20048;-85
2022/05/30 01:30:49;;;;;;;;;;;9.10;99.90;;;;;;5045864;28;20037;-86
2022/05/30 01:33:17;;;;;;;4.20;0.60;;;9.10;99.90;;;;;;5052359;28;20018;-84
2022/05/30 01:35:44;;;;;;;3.95;0.70;;;9.10;99.90;;;;;;5034411;28;20029;-85
2022/05/30 01:38:14;;;;;;;2.88;0.60;;;9.00;99.90;;;;;;5011468;28;20040;-85
2022/05/30 01:40:43;;;;;;;3.35;0.60;;;9.00;99.90;;;;;;4982708;28;20037;-84
2022/05/30 01:43:19;;;;;;;7.32;0.75;;;9.00;99.90;;;;;;5031036;28;20034;-85
2022/05/30 01:46:07;;;;;;;6.85;0.95;;;9.00;99.90;;;;;;5027257;28;20052;-85
2022/05/30 01:48:43;;;;;;;7.82;0.98;;;8.90;99.90;;;;;;5025375;28;20381;-85
2022/05/30 01:51:11;;;;;;;3.95;0.60;;;8.90;99.90;;;;;;5027433;28;20049;-85
2022/05/30 01:53:38;;;;;;;5.38;0.60;;;8.80;99.90;;;;;;5031992;28;20041;-84
2022/05/30 01:57:08;;;;;;;5.30;0.70;;;8.80;99.90;;;;;;5011534;28;20045;-84
2022/05/30 01:59:49;;;;;;;3.10;0.50;;;8.70;99.90;;;;;;5030869;28;20029;-85
2022/05/30 02:02:41;;;;;;;4.03;0.60;;;8.60;99.90;;;;;;5020687;28;20060;-85
2022/05/30 02:05:20;;;;;;;5.05;0.82;;;8.50;99.90;;;;;;5015896;28;20476;-85
2022/05/30 02:07:51;;;;;;;4.60;0.77;;;8.50;99.90;;;;;;5019962;28;20037;-84
2022/05/30 02:10:31;;;;;;;3.90;0.60;;;8.50;99.90;;;;;;5044418;28;20044;-84
2022/05/30 02:13:16;;;;;;;4.78;0.60;;;8.50;99.90;;;;;;5028946;28;20041;-85
2022/05/30 02:19:22;;;;;;;3.25;0.60;;;8.40;99.90;;;;;;5037236;28;20032;-84
2022/05/30 02:21:50;;;;;;;3.30;0.52;;;8.40;99.90;;;;;;5045268;28;20037;-85
2022/05/30 02:24:23;;;;;;;5.57;0.70;;;8.40;99.90;;;;;;5046147;28;20038;-85
2022/05/30 02:27:00;;;;;;;5.35;1.20;;;8.40;99.90;;;;;;4999652;28;20484;-84
2022/05/30 02:29:40;;;;;;;5.03;0.70;;;8.30;99.90;;;;;;5014097;28;20037;-85
2022/05/30 02:32:31;;;;;;;5.53;0.90;;;8.30;99.90;;;;;;5026983;28;20040;-84
2022/05/30 02:37:57;;;;;;;4.03;0.70;;;8.40;99.90;;;;;;5010447;28;20033;-85
2022/05/30 02:40:59;;;;;;;4.55;0.80;;;8.40;99.90;;;;;;4947148;28;20878;-84
2022/05/30 02:44:14;;;;;;;5.10;1.00;;;8.50;99.90;;;;;;4932054;28;20522;-84
2022/05/30 02:46:47;;;;;;;5.95;0.80;;;8.50;99.90;;;;;;5024553;28;20497;-84
2022/05/30 02:49:18;;;;;;;3.92;1.05;;;8.60;99.90;;;;;;5012600;28;20037;-81
2022/05/30 02:52:01;;;;;;;4.38;0.63;;;8.60;99.90;;;;;;5010565;28;20045;-81
2022/05/30 02:54:28;;;;;;;4.72;1.20;;;8.50;99.90;;;;;;5045248;28;20029;-80
2022/05/30 02:58:00;;;;;;;3.40;0.70;;;8.50;99.90;;;;;;4944686;28;20356;-82
2022/05/30 03:00:38;;;;;;;4.30;0.70;;;8.40;99.90;;;;;;5034033;28;20484;-81
2022/05/30 03:03:20;;;;;;;3.00;0.68;;;8.30;99.90;;;;;;5027398;28;20507;-85
2022/05/30 03:06:12;;;;;;;4.55;1.30;;;8.30;99.90;;;;;;5013819;28;20507;-85
2022/05/30 03:08:56;;;;;;;3.80;0.60;;;8.20;99.90;;;;;;5027638;28;20060;-85
2022/05/30 03:11:54;;;;;;;2.00;0.70;;;8.10;99.90;;;;;;5010950;28;20053;-84
2022/05/30 03:14:25;;;;;;;7.00;1.00;;;8.10;99.90;;;;;;5028419;28;20033;-84
2022/05/30 03:16:55;;;;;;;6.75;0.85;;;8.00;99.90;;;;;;5042649;28;20024;-84
2022/05/30 03:19:28;;;;;;;4.85;0.90;;;8.00;99.90;;;;;;5014613;28;20025;-82
2022/05/30 03:22:21;;;;;;;4.47;1.13;;;8.00;99.90;;;;;;5025709;28;20075;-85
2022/05/30 03:25:17;;;;;;;3.08;0.85;;;8.00;99.90;;;;;;5027615;28;20056;-85
2022/05/30 03:27:44;;;;;;;4.85;1.20;;;7.90;99.90;;;;;;5005572;28;20045;-85
2022/05/30 03:30:20;;;;;;;6.95;1.15;;;8.00;99.90;;;;;;5008143;28;20385;-85
2022/05/30 03:32:58;;;;;;;5.55;0.88;;;8.00;99.90;;;;;;5011376;28;20056;-85
2022/05/30 03:35:31;;;;;;;9.52;1.02;;;8.10;99.90;;;;;;5011229;28;20040;-85
2022/05/30 03:38:35;;;;;;;4.60;1.23;;;8.20;99.90;;;;;;5022875;28;20052;-85
2022/05/30 03:41:41;;;;;;;4.68;0.80;;;8.30;99.90;;;;;;5028949;28;20029;-86
2022/05/30 03:44:17;;;;;;;3.92;1.20;;;8.40;99.90;;;;;;5009474;28;20092;-85
2022/05/30 03:46:51;;;;;;;3.25;0.70;;;8.40;99.90;;;;;;5010265;28;20044;-86
2022/05/30 03:49:37;;;;;;;3.35;1.10;;;8.50;99.90;;;;;;5007826;28;20401;-85
2022/05/30 03:52:06;;;;;;;4.40;1.10;;;8.60;99.90;;;;;;5040419;28;20428;-84
2022/05/30 03:54:43;;;;;;;5.20;0.90;;;8.70;99.90;;;;;;5027508;28;20546;-85
2022/05/30 03:57:37;;;;;;;5.32;1.10;;;8.70;99.90;;;;;;5002635;28;20044;-86
2022/05/30 04:00:16;;;;;;;5.15;1.00;;;8.80;99.90;;;;;;5007192;28;20109;-86
2022/05/30 04:02:47;;;;;;;4.70;1.05;;;8.90;99.90;;;;;;5028067;28;20041;-85
2022/05/30 04:05:23;;;;;;;4.38;0.80;;;9.00;99.90;;;;;;5036127;28;20048;-85
2022/05/30 04:07:57;;;;;;;5.43;1.17;;;9.10;99.90;;;;;;5025287;28;20036;-84
2022/05/30 04:10:48;;;;;;;4.32;1.10;;;9.20;99.90;;;;;;5024408;28;20052;-83
2022/05/30 04:13:39;;;;;;;6.78;0.93;;;9.30;99.90;;;;;;5030549;28;20053;-84
2022/05/30 04:16:38;;;;;;;3.15;0.90;;;9.30;99.90;;;;;;5029874;28;20503;-84
2022/05/30 04:19:11;;;;;;;5.18;1.10;;;9.40;99.90;;;;;;5031440;28;20504;-84
2022/05/30 04:21:41;;;;;;;4.65;1.13;;;9.40;99.90;;;;;;5014393;28;20044;-84
2022/05/30 04:24:20;;;;;;;5.97;1.80;;;9.50;99.90;;;;;;5010177;28;20385;-85
2022/05/30 04:26:54;;;;;;;4.38;1.17;;;9.50;99.90;;;;;;5009112;28;20044;-85
2022/05/30 04:29:23;;;;;;;5.03;1.10;;;9.60;99.90;;;;;;5025430;28;20040;-88
2022/05/30 04:32:16;;;;;;;4.35;1.33;;;9.70;99.90;;;;;;5045017;28;20032;-90
2022/05/30 04:35:11;;;;;;;6.82;1.92;;;9.70;99.90;;;;;;4981832;28;20037;-86
2022/05/30 04:37:41;;;;;;;5.78;1.80;;;9.80;99.90;;;;;;5026613;28;20385;-84
2022/05/30 04:40:42;;;;;;;10.17;2.50;;;9.80;99.90;;;;;;5026632;28;20043;-81
2022/05/30 04:43:20;;;;;;;6.50;2.42;;;9.80;99.90;;;;;;5034905;28;20029;-84
2022/05/30 04:46:22;;;;;;;5.10;1.30;;;9.90;99.90;;;;;;4959523;28;20041;-83
2022/05/30 04:48:50;;;;;;;4.78;1.73;;;10.00;99.90;;;;;;4982391;28;20369;-83
2022/05/30 04:51:17;;;;;;;4.32;1.20;;;10.00;99.90;;;;;;5006445;28;20055;-83
2022/05/30 04:53:43;;;;;;;4.38;1.58;;;10.10;99.90;;;;;;5009994;28;20052;-81
2022/05/30 04:56:10;;;;;;;7.63;2.05;;;10.20;99.90;;;;;;5011058;28;20037;-85
2022/05/30 04:58:59;;;;;;;6.45;1.40;;;10.30;99.90;;;;;;5014364;28;20500;-86
2022/05/30 05:01:27;;;;;;;4.40;1.27;;;10.30;99.90;;;;;;4995997;28;20151;-83
2022/05/30 05:03:55;;;;;;;3.70;0.93;;;10.40;99.90;;;;;;5043542;28;20503;-84
2022/05/30 05:06:23;;;;;;;2.53;0.90;;;10.40;99.90;;;;;;5025171;28;20036;-85
2022/05/30 05:08:53;;;;;;;3.70;0.88;;;10.40;99.90;;;;;;5021658;28;20041;-85
2022/05/30 05:11:54;;;;;;;5.50;0.75;;;10.50;99.90;;;;;;5027947;28;20037;-88
2022/05/30 05:14:39;;;;;;;6.57;1.27;;;10.50;99.90;;;;;;5025613;28;20037;-85
2022/05/30 05:17:32;;;;;;;3.08;0.90;;;10.50;99.90;;;;;;5007969;28;20037;-84
2022/05/30 05:19:58;;;;;;;3.00;0.63;;;10.60;99.90;;;;;;5014394;28;20052;-85
2022/05/30 05:22:24;;;;;;;3.33;0.70;;;10.60;99.90;;;;;;4979549;28;20507;-86
2022/05/30 05:24:51;;;;;;;3.30;0.70;;;10.70;99.90;;;;;;5011282;28;20029;-82
2022/05/30 05:27:18;;;;;;;2.67;0.63;;;10.80;99.90;;;;;;5011955;28;20041;-83
2022/05/30 05:29:47;;;;;;;3.13;0.93;;;10.90;99.90;;;;;;5003870;28;20037;-82
2022/05/30 05:32:15;;;;;;;2.65;0.70;;;10.90;99.90;;;;;;5037104;28;20025;-83
2022/05/30 05:34:42;;;;;;;3.30;0.70;;;11.00;99.90;;;;;;5022029;28;20048;-82
2022/05/30 05:37:09;;;;;;;3.10;0.60;;;11.10;99.90;;;;;;5031616;28;20048;-84
2022/05/30 05:39:44;;;;;;;2.80;0.40;;;11.20;99.90;;;;;;5013067;28;20048;-84
2022/05/30 05:42:13;;;;;;;3.13;0.60;;;11.30;99.90;;;;;;5032009;28;20056;-82
2022/05/30 05:44:41;;;;;;;2.70;0.60;;;11.50;99.90;;;;;;5013682;28;20036;-82
2022/05/30 05:47:09;;;;;;;4.10;1.20;;;11.70;99.90;;;;;;5023960;28;20413;-81
2022/05/30 05:49:37;;;;;;;2.97;0.70;;;11.80;99.90;;;;;;5014776;28;20044;-82
2022/05/30 05:52:09;;;;;;;2.05;0.55;;;11.90;99.90;;;;;;5052953;28;20052;-89
2022/05/30 05:54:42;;;;;;;2.35;0.50;;;11.90;99.90;;;;;;5018302;28;20543;-86
2022/05/30 05:57:11;;;;;;;2.33;0.50;;;12.00;99.90;;;;;;4996325;28;20071;-84
2022/05/30 05:59:52;;;;;;;2.05;0.50;;;12.00;99.90;;;;;;5014269;28;20032;-83
2022/05/30 06:02:22;;;;;;;1.08;0.30;;;12.00;99.90;;;;;;5025985;28;20033;-83
2022/05/30 06:04:55;;;;;;;1.13;0.30;;;12.10;99.90;;;;;;5029686;28;20028;-83
2022/05/30 06:07:46;;;;;;;2.20;0.20;;;12.20;99.90;;;;;;5022853;28;20035;-83
2022/05/30 06:11:05;;;;;;;2.92;0.35;;;12.50;99.90;;;;;;5018204;28;20033;-83
2022/05/30 06:13:24;;;;;;;2.35;0.35;;;12.90;99.90;;;;;;5044630;28;20495;-84
2022/05/30 06:16:06;;;;;;;2.22;0.28;;;13.40;99.90;;;;;;5027840;28;20446;-83
2022/05/30 06:18:54;;;;;;;1.23;0.30;;;13.60;99.90;;;;;;5029965;28;20541;-83
2022/05/30 06:21:36;;;;;;;1.90;0.28;;;13.60;99.90;;;;;;5026251;28;20057;-83
2022/05/30 06:24:21;;;;;;;2.63;0.35;;;13.60;99.90;;;;;;5009728;28;20013;-83
2022/05/30 06:27:07;;;;;;;1.40;0.20;;;13.50;99.90;;;;;;5008687;28;20036;-83
2022/05/30 06:29:53;;;;;;;0.85;0.10;;;13.60;99.90;;;;;;5029805;28;20029;-83
2022/05/30 06:32:22;;;;;;;2.00;0.25;;;13.60;99.90;;;;;;5026992;28;20488;-83
2022/05/30 06:35:11;;;;;;;3.00;0.30;;;13.50;99.90;;;;;;5044111;28;20024;-83
2022/05/30 06:37:45;;;;;;;2.05;0.22;;;13.40;99.90;;;;;;5007654;28;20033;-84
2022/05/30 06:40:15;;;;;;;2.38;0.25;;;13.60;99.90;;;;;;5043794;28;20507;-82
2022/05/30 06:42:52;;;;;;;1.45;0.25;;;13.80;99.90;;;;;;5041770;28;20037;-83
2022/05/30 06:45:51;;;;;;;1.23;0.30;;;14.00;99.90;;;;;;5029222;28;20121;-84
2022/05/30 06:48:55;;;;;;;1.52;0.30;;;14.10;99.90;;;;;;5010984;28;20021;-84
2022/05/30 06:51:47;;;;;;;2.55;0.40;;;14.20;99.90;;;;;;5040349;28;20041;-83
2022/05/30 06:54:20;;;;;;;3.25;0.30;;;14.40;99.90;;;;;;5026760;28;20020;-83
2022/05/30 06:59:45;;;;;;;2.83;0.40;;;14.60;99.90;;;;;;5027002;28;20025;-84
2022/05/30 07:02:36;;;;;;;3.60;0.50;;;14.60;99.90;;;;;;5025888;28;20040;-83
2022/05/30 07:05:21;;;;;;;1.50;0.20;;;14.70;99.90;;;;;;5025008;28;20373;-83
2022/05/30 07:08:39;;;;;;;1.30;0.20;;;14.90;99.90;;;;;;4943872;28;20039;-83
2022/05/30 07:11:32;;;;;;;2.30;0.30;;;15.10;99.90;;;;;;5039968;28;20295;-84
2022/05/30 07:14:03;;;;;;;2.03;0.20;;;15.20;99.90;;;;;;5015095;28;20029;-83
2022/05/30 07:16:34;;;;;;;1.55;0.30;;;15.30;99.90;;;;;;5008736;28;20911;-84
2022/05/30 07:19:03;;;;;;;1.55;0.20;;;15.30;99.90;;;;;;5006896;28;20037;-84
2022/05/30 07:21:36;;;;;;;3.22;0.40;;;15.40;99.90;;;;;;5022711;28;20044;-83
2022/05/30 07:24:24;;;;;;;3.85;0.73;;;15.50;99.90;;;;;;4999403;28;20404;-83
2022/05/30 07:27:14;;;;;;;2.33;0.30;;;15.50;99.90;;;;;;5037193;28;20814;-84
2022/05/30 07:30:05;;;;;;;3.00;0.20;;;15.50;99.90;;;;;;4998276;28;20024;-83
2022/05/30 07:32:59;;;;;;;1.73;0.40;;;15.40;99.90;;;;;;4974873;28;20041;-84
2022/05/30 07:35:51;;;;;;;3.28;0.63;;;15.30;99.90;;;;;;5001428;28;20048;-83
2022/05/30 07:38:36;;;;;;;1.63;0.28;;;15.30;99.90;;;;;;4974464;28;20034;-84
2022/05/30 07:41:28;;;;;;;2.45;0.30;;;15.20;99.90;;;;;;5000824;28;20033;-84
2022/05/30 07:44:47;;;;;;;1.42;0.30;;;15.10;99.90;;;;;;4970157;28;20034;-84
2022/05/30 07:47:32;;;;;;;2.45;0.20;;;15.00;99.90;;;;;;4970967;28;20034;-84
2022/05/30 07:50:23;;;;;;;1.35;0.20;;;14.90;99.90;;;;;;5001265;28;20045;-84
2022/05/30 07:53:08;;;;;;;2.25;0.20;;;15.00;99.90;;;;;;4974617;28;20045;-85
2022/05/30 07:55:41;;;;;;;2.72;0.30;;;15.00;99.90;;;;;;5002021;28;20161;-84
2022/05/30 07:58:11;;;;;;;1.45;0.30;;;15.00;99.90;;;;;;4969061;28;20025;-87
2022/05/30 08:01:23;;;;;;;3.22;0.30;;;15.00;99.90;;;;;;4986208;28;20409;-86
2022/05/30 08:04:32;;;;;;;2.20;0.20;;;15.00;99.90;;;;;;5001260;28;20064;-86
2022/05/30 08:07:39;;;;;;;3.83;0.40;;;15.10;99.90;;;;;;5039180;28;20362;-85
2022/05/30 08:10:25;;;;;;;2.05;0.20;;;15.20;99.90;;;;;;5024006;28;20032;-87
2022/05/30 08:12:58;;;;;;;2.75;0.55;;;15.30;99.90;;;;;;5009732;28;20048;-86
2022/05/30 08:15:51;;;;;;;2.13;0.30;;;15.50;99.90;;;;;;5015286;28;20542;-87
2022/05/30 08:18:24;;;;;;;3.03;0.22;;;15.60;99.70;;;;;;5024015;28;20044;-86
2022/05/30 08:20:56;;;;;;;1.80;0.30;;;15.80;99.40;;;;;;5008091;28;20060;-86
2022/05/30 08:23:27;;;;;;;2.80;0.20;;;15.80;99.30;;;;;;5008980;28;20021;-87
2022/05/30 08:26:02;;;;;;;4.68;0.30;;;15.90;99.10;;;;;;5022247;28;20028;-86
2022/05/30 08:28:35;;;;;;;2.60;0.50;;;16.00;98.50;;;;;;5024404;28;20049;-86
2022/05/30 08:31:03;;;;;;;3.63;0.30;;;16.10;98.40;;;;;;5004103;28;20597;-86
2022/05/30 08:33:48;;;;;;;1.08;0.25;;;16.10;98.10;;;;;;5028866;28;20341;-85
2022/05/30 08:36:15;;;;;;;3.30;0.30;;;16.20;98.00;;;;;;5006414;28;20025;-86
2022/05/30 08:41:46;;;;;;;3.42;0.45;;;16.20;97.70;;;;;;5019310;28;20448;-86
2022/05/30 08:41:48;;;;;;;2.07;0.30;;;16.20;97.50;;;;;;5038199;28;20040;-85
2022/05/30 08:44:32;;;;;;;4.53;0.20;;;16.20;97.40;;;;;;4995828;28;21397;-86
2022/05/30 08:47:52;;;;;;;1.40;0.30;;;16.30;97.20;;;;;;5007278;28;20033;-86
2022/05/30 08:50:47;;;;;;;2.10;0.20;;;16.40;96.90;;;;;;5006101;28;20029;-87
2022/05/30 08:53:35;;;;;;;3.25;0.30;;;16.40;96.90;;;;;;5025100;28;20040;-86
2022/05/30 08:56:34;;;;;;;1.27;0.30;;;16.50;96.80;;;;;;5024516;28;20024;-87
2022/05/30 08:59:48;;;;;;;1.20;0.30;;;16.60;96.60;;;;;;5028024;28;20464;-86
2022/05/30 09:02:30;;;;;;;1.42;0.32;;;16.80;96.40;;;;;;5010657;28;20017;-86
2022/05/30 09:05:22;;;;;;;2.85;0.38;;;17.00;96.20;;;;;;5013663;28;20028;-86
2022/05/30 09:07:58;;;;;;;1.17;0.30;;;17.00;95.80;;;;;;5029434;28;20033;-86
2022/05/30 09:10:35;;;;;;;2.75;0.30;;;17.10;95.60;;;;;;5025830;28;20041;-86
2022/05/30 09:13:07;;;;;;;1.20;0.28;;;17.30;95.30;;;;;;4994392;28;20036;-86
2022/05/30 09:16:02;;;;;;;1.23;0.30;;;17.40;95.00;;;;;;5026562;28;20021;-86
2022/05/30 09:18:39;;;;;;;0.80;0.20;;;17.50;94.40;;;;;;5026410;28;20262;-86
2022/05/30 09:21:06;;;;;;;1.60;0.20;;;17.70;93.90;;;;;;5010824;28;20029;-86
2022/05/30 09:23:32;;;;;;;1.70;0.30;;;17.80;93.50;;;;;;4983649;28;20468;-86
2022/05/30 09:26:01;;;;;;;1.67;0.22;;;17.80;92.90;;;;;;5013828;28;20025;-86
2022/05/30 09:28:49;;;;;;;1.23;0.20;;;17.90;92.70;;;;;;5012293;28;20037;-87
2022/05/30 09:31:58;;;;;;;1.80;0.20;;;18.00;92.60;;;;;;5044099;28;20047;-86
2022/05/30 09:34:49;;;;;;;1.70;0.30;;;18.10;92.00;;;;;;5007419;28;20037;-86
2022/05/30 09:37:38;;;;;;;3.90;0.20;;;18.20;91.30;;;;;;5027339;28;20018;-85
2022/05/30 09:40:54;;;;;;;1.60;0.20;;;18.00;91.10;;;;;;5007365;28;21086;-85
2022/05/30 09:43:44;;;;;;;3.55;0.30;;;17.80;91.40;;;;;;5023536;28;20029;-86
2022/05/30 09:46:30;;;;;;;1.77;0.20;;;17.70;91.50;;;;;;4993875;28;20468;-86
2022/05/30 09:49:41;;;;;;;4.97;0.45;;;17.60;91.60;;;;;;5016808;28;20894;-86
2022/05/30 09:52:30;;;;;;;1.70;0.20;;;17.50;91.80;;;;;;4993317;28;20048;-87
2022/05/30 09:55:34;;;;;;;0.65;0.20;;;17.50;91.50;;;;;;5047608;28;20021;-87
2022/05/30 09:58:05;;;;;;;0.70;0.20;;;17.60;91.50;;;;;;5004558;28;20415;-87
2022/05/30 10:00:56;;;;;;;1.05;0.20;;;17.70;91.00;;;;;;5009752;28;20056;-86
2022/05/30 10:03:31;;;;;;;1.13;0.20;;;17.70;90.20;;;;;;5027058;28;20041;-87
2022/05/30 10:06:21;;;;;;;2.03;0.20;;;18.00;90.20;;;;;;5026518;28;20192;-87
2022/05/30 10:09:13;;;;;;;1.38;0.30;;;18.40;90.00;;;;;;5010937;28;20702;-88
2022/05/30 10:11:42;;;;;;;1.85;0.30;;;18.70;88.70;;;;;;5026875;28;20048;-86
2022/05/30 10:14:34;;;;;;;1.73;0.20;;;19.00;87.40;;;;;;5011749;28;20040;-84
2022/05/30 10:17:49;;;;;;;3.03;0.20;;;19.10;85.70;;;;;;5021395;28;20033;-86
2022/05/30 10:21:00;;;;;;;1.10;0.20;;;19.00;84.30;;;;;;4989897;28;20332;-87
2022/05/30 10:31:11;;;;;;;1.65;0.20;;;18.50;82.30;;;;;;5044139;28;20025;-87
2022/05/30 10:34:27;;;;;;;2.40;0.30;;;18.20;83.20;;;;;;5009832;28;20021;-87
2022/05/30 10:37:15;;;;;;;1.92;0.30;;;17.80;84.40;;;;;;5026293;28;20028;-86
2022/05/30 10:39:48;;;;;;;2.58;0.57;;;17.40;85.30;;;;;;5045675;28;20376;-86
2022/05/30 10:42:31;;;;;;;0.52;0.20;;;17.00;85.90;;;;;;5022642;28;20041;-86
2022/05/30 10:45:05;;;;;;;2.60;0.22;;;16.70;87.10;;;;;;5010482;28;20036;-86
2022/05/30 10:47:41;;;;;;;1.38;0.20;;;16.60;87.70;;;;;;5021528;28;20391;-86
2022/05/30 10:50:21;;;;;;;1.95;0.30;;;16.40;88.60;;;;;;5008381;28;20029;-85
2022/05/30 10:52:56;;;;;;;2.20;0.30;;;16.30;89.10;;;;;;5023383;28;22759;-87
2022/05/30 10:55:40;;;;;;;1.33;0.30;;;16.20;89.70;;;;;;4999295;28;20032;-87
2022/05/30 10:58:19;;;;;;;1.23;0.30;;;16.20;90.00;;;;;;5022823;28;20028;-85
2022/05/30 11:00:55;;;;;;;1.63;0.35;;;16.10;90.10;;;;;;5020614;28;20029;-85
2022/05/30 11:03:43;;;;;;;3.40;0.40;;;16.10;90.20;;;;;;5008210;28;20021;-85
2022/05/30 11:06:16;;;;;;;2.08;0.35;;;16.10;90.20;;;;;;5026455;28;20032;-87
2022/05/30 11:09:22;;;;;;;1.92;0.22;;;16.00;90.40;;;;;;5026852;28;20017;-86
2022/05/30 11:12:08;;;;;;;2.30;0.30;;;16.00;90.50;;;;;;5028880;28;20542;-87
2022/05/30 11:15:11;;;;;;;1.25;0.20;;;16.00;90.50;;;;;;5014456;28;20013;-87
2022/05/30 11:18:07;;;;;;;4.13;0.30;;;16.00;90.40;;;;;;5000003;28;20373;-86
2022/05/30 11:21:36;;;;;;;1.70;0.40;;;16.00;90.40;;;;;;5017407;28;20400;-85
2022/05/30 11:24:05;;;;;;;3.35;0.40;;;15.90;90.00;;;;;;5032850;28;20051;-85
2022/05/30 11:27:13;;;;;;;1.77;0.40;;;15.90;89.70;;;;;;5032424;28;20024;-84
2022/05/30 11:29:58;;;;;;;1.42;0.30;;;15.90;89.30;;;;;;4988459;28;20036;-85
2022/05/30 11:33:02;;;;;;;1.30;0.30;;;15.90;89.10;;;;;;5033026;28;20043;-85
2022/05/30 11:35:34;;;;;;;3.72;0.50;;;16.00;89.10;;;;;;5048119;28;20499;-85
2022/05/30 11:38:25;;;;;;;1.02;0.30;;;16.10;88.60;;;;;;5039326;28;20021;-85
2022/05/30 11:41:07;;;;;;;2.58;0.30;;;16.20;88.70;;;;;;5010571;28;20029;-84
2022/05/30 11:43:42;;;;;;;1.83;0.50;;;16.20;88.20;;;;;;5010207;28;20064;-84
2022/05/30 11:46:15;;;;;;;3.45;0.50;;;16.20;88.20;;;;;;5025288;28;20029;-85
2022/05/30 11:49:05;;;;;;;;;;;16.30;88.30;;;;;;5003695;28;20033;-83
2022/05/30 11:51:34;;;;;;;2.63;0.50;;;16.30;88.30;;;;;;4992492;28;19921;-84
2022/05/30 11:54:36;;;;;;;2.95;0.98;;;16.40;88.20;;;;;;5022312;28;20048;-83
2022/05/30 11:57:08;;;;;;;1.50;0.40;;;16.50;88.10;;;;;;4989690;28;20025;-84
2022/05/30 12:00:03;;;;;;;2.70;0.60;;;16.50;87.30;;;;;;5024619;28;20352;-84
2022/05/30 12:02:56;;;;;;;3.33;1.23;;;16.60;87.00;;;;;;5037995;28;20351;-84
2022/05/30 12:05:36;;;;;;;5.82;2.38;;;16.70;86.30;;;;;;5008137;28;20412;-84
2022/05/30 12:08:23;;;;;;;4.22;1.30;;;16.80;86.10;;;;;;5039275;28;20033;-85
2022/05/30 12:11:21;;;;;;;2.80;0.60;;;16.90;85.90;;;;;;4993261;28;20040;-85
2022/05/30 12:14:29;;;;;;;3.00;0.40;;;17.00;85.90;;;;;;5010910;28;20151;-85
2022/05/30 12:17:14;;;;;;;3.67;0.40;;;17.10;85.80;;;;;;5012158;28;20032;-85
2022/05/30 12:25:35;;;;;;;2.63;0.43;;;17.70;84.00;;;;;;5010448;28;20060;-85
2022/05/30 12:28:27;;;;;;;1.88;0.50;;;17.80;83.50;;;;;;5018288;28;20028;-85
2022/05/30 12:31:00;;;;;;;1.38;0.30;;;18.00;83.00;;;;;;5010049;28;20376;-85
2022/05/30 12:33:29;;;;;;;2.13;0.43;;;18.10;82.70;;;;;;5012812;28;20412;-84
2022/05/30 12:36:08;;;;;;;2.10;0.22;;;18.30;82.60;;;;;;5024163;28;20021;-83
2022/05/30 12:38:58;;;;;;;2.10;0.38;;;18.40;81.50;;;;;;5000952;28;20017;-85
2022/05/30 12:42:09;;;;;;;1.80;0.43;;;18.30;81.60;;;;;;5024585;28;20370;-85
2022/05/30 12:44:51;;;;;;;1.63;0.40;;;18.30;82.00;;;;;;5007882;28;20488;-84
2022/05/30 12:47:31;;;;;;;2.22;0.40;;;18.60;81.50;;;;;;5002060;28;20021;-84
2022/05/30 12:50:33;;;;;;;2.28;0.65;;;18.80;81.40;;;;;;5042474;28;20410;-84
2022/05/30 12:53:05;;;;;;;2.08;0.40;;;18.90;81.30;;;;;;5011677;28;20508;-86
2022/05/30 12:55:51;;;;;;;1.38;0.40;;;19.20;81.00;;;;;;5024667;28;20032;-86
2022/05/30 12:58:37;;;;;;;4.93;0.50;;;19.40;81.20;;;;;;5012897;28;21317;-85
2022/05/30 13:01:23;;;;;;;4.65;0.50;;;19.70;79.80;;;;;;5022991;28;20064;-87
2022/05/30 13:04:14;;;;;;;2.63;0.38;;;20.10;78.50;;;;;;5004866;28;20026;-86
2022/05/30 13:06:56;;;;;;;2.78;0.50;;;20.60;77.00;;;;;;5007053;28;20033;-85
2022/05/30 13:09:35;;;;;;;2.60;0.40;;;21.10;75.40;;;;;;5020953;28;20034;-85
2022/05/30 13:12:17;;;;;;;1.67;0.40;;;22.10;73.80;;;;;;5019093;28;20037;-85
2022/05/30 13:15:13;;;;;;;1.83;0.50;;;23.50;71.20;;;;;;5010887;28;20069;-86
2022/05/30 13:17:53;;;;;;;2.97;0.60;;;25.40;66.80;;;;;;4999443;28;20052;-85
2022/05/30 13:20:33;;;;;;;1.77;0.55;;;26.60;62.20;;;;;;5020152;28;20040;-86
2022/05/30 13:23:02;;;;;;;2.67;0.40;;;26.90;59.40;;;;;;5021040;28;20048;-86
2022/05/30 13:25:40;;;;;;;1.75;0.50;;;27.00;57.30;;;;;;5039166;28;20032;-85
2022/05/30 13:28:13;;;;;;;2.00;0.50;;;27.30;55.30;;;;;;5031350;28;20036;-85
2022/05/30 13:30:40;;;;;;;3.17;0.60;;;26.80;53.80;;;;;;5003371;28;20032;-85
2022/05/30 13:33:20;;;;;;;2.05;0.32;;;26.60;54.20;;;;;;5009608;28;20503;-85
2022/05/30 13:35:51;;;;;;;1.60;0.40;;;26.60;53.90;;;;;;5030071;28;20496;-84
2022/05/30 13:38:25;;;;;;;1.98;0.30;;;26.60;53.30;;;;;;5013489;28;20037;-85
2022/05/30 13:40:56;;;;;;;2.13;0.40;;;26.50;53.30;;;;;;5018143;28;20017;-84
2022/05/30 13:43:33;;;;;;;1.98;0.40;;;26.60;52.20;;;;;;5022424;28;20493;-84
2022/05/30 13:46:01;;;;;;;2.90;0.40;;;26.70;52.00;;;;;;5021739;28;20903;-86
2022/05/30 13:48:29;;;;;;;2.13;0.40;;;26.90;50.70;;;;;;5002334;28;20382;-85
2022/05/30 13:51:10;;;;;;;2.20;0.30;;;27.00;50.20;;;;;;4991190;28;20029;-85
2022/05/30 13:53:49;;;;;;;2.58;0.43;;;26.80;49.90;;;;;;5024965;28;20034;-85
2022/05/30 13:56:26;;;;;;;3.00;0.60;;;26.50;49.60;;;;;;5025177;28;21100;-86
2022/05/30 13:59:00;;;;;;;2.75;0.47;;;25.70;49.70;;;;;;5023335;28;20700;-85
2022/05/30 14:01:35;;;;;;;1.30;0.40;;;24.90;51.10;;;;;;5007899;28;20041;-85
2022/05/30 14:04:20;;;;;;;2.28;0.43;;;24.20;52.60;;;;;;5008881;28;20038;-85
2022/05/30 14:06:47;;;;;;;2.15;0.40;;;23.60;53.70;;;;;;5022436;28;20040;-85
2022/05/30 14:09:18;;;;;;;4.10;0.60;;;23.20;54.60;;;;;;5025903;28;20029;-86
2022/05/30 14:11:53;;;;;;;3.22;0.40;;;23.00;54.90;;;;;;5023984;28;20044;-87
2022/05/30 14:14:44;;;;;;;1.77;0.40;;;23.10;55.30;;;;;;5025238;28;20393;-86
2022/05/30 14:17:23;;;;;;;2.15;0.50;;;23.70;54.10;;;;;;5018233;28;20056;-85
2022/05/30 14:20:11;;;;;;;2.45;0.38;;;24.00;53.50;;;;;;5011373;28;20033;-86
2022/05/30 14:22:54;;;;;;;4.03;0.40;;;24.20;52.60;;;;;;5008326;28;20029;-85
2022/05/30 14:25:37;;;;;;;1.50;0.37;;;24.10;52.50;;;;;;5010343;28;20022;-85
2022/05/30 14:28:11;;;;;;;1.77;0.40;;;23.60;52.80;;;;;;5008927;28;20276;-85
2022/05/30 14:30:40;;;;;;;2.72;0.47;;;23.00;52.60;;;;;;5024633;28;20033;-86